createdAt,value
2022-12-11T00:00:18.539Z,30.20
2022-12-11T00:02:47.357Z,31.08
2022-12-11T00:05:16.224Z,32.00
2022-12-11T00:07:44.911Z,27.98
2022-12-11T00:10:15.320Z,32.88
2022-12-11T00:12:43.974Z,30.42
2022-12-11T00:15:13.624Z,34.45
2022-12-11T00:17:42.643Z,30.48
2022-12-11T00:20:12.430Z,35.90
2022-12-11T00:22:41.374Z,30.38
2022-12-11T00:25:10.828Z,29.35
2022-12-11T00:27:41.471Z,34.10
2022-12-11T00:30:11.413Z,33.78
2022-12-11T00:32:40.302Z,32.28
2022-12-11T00:35:10.042Z,35.67
2022-12-11T00:37:39.239Z,30.10
2022-12-11T00:40:09.417Z,31.90
2022-12-11T00:42:38.312Z,28.67
2022-12-11T00:45:10.045Z,27.80
2022-12-11T00:47:39.175Z,30.92
2022-12-11T00:50:08.967Z,31.40
2022-12-11T00:52:37.813Z,33.92
2022-12-11T00:55:07.422Z,30.25
2022-12-11T00:57:37.474Z,28.75
2022-12-11T01:00:08.850Z,29.83
2022-12-11T01:02:37.786Z,31.80
2022-12-11T01:05:07.798Z,32.50
2022-12-11T01:07:36.769Z,30.20
2022-12-11T01:10:25.216Z,33.65
2022-12-11T01:12:55.224Z,31.42
2022-12-11T01:15:27.208Z,34.35
2022-12-11T01:17:56.320Z,38.08
2022-12-11T01:20:26.195Z,34.47
2022-12-11T01:22:57.207Z,32.83
2022-12-11T01:25:26.604Z,31.42
2022-12-11T01:27:56.415Z,30.38
2022-12-11T01:30:27.488Z,33.45
2022-12-11T01:32:56.244Z,33.75
2022-12-11T01:35:24.968Z,32.88
2022-12-11T01:37:54.297Z,29.08
2022-12-11T01:40:24.392Z,31.30
2022-12-11T01:42:53.047Z,29.67
2022-12-11T01:45:36.477Z,34.75
2022-12-11T01:48:08.516Z,28.02
2022-12-11T01:50:41.206Z,32.00
2022-12-11T01:53:13.601Z,33.35
2022-12-11T01:55:43.101Z,33.17
2022-12-11T01:58:12.728Z,30.42
2022-12-11T02:00:42.879Z,31.30
2022-12-11T02:03:11.748Z,31.30
2022-12-11T02:05:40.488Z,31.33
2022-12-11T02:08:09.881Z,28.77
2022-12-11T02:10:50.249Z,28.75
2022-12-11T02:13:23.253Z,27.02
2022-12-11T02:15:58.883Z,31.50
2022-12-11T02:18:32.906Z,28.45
2022-12-11T02:21:07.583Z,30.00
2022-12-11T02:23:55.381Z,26.10
2022-12-11T02:26:36.081Z,27.45
2022-12-11T02:29:09.610Z,31.42
2022-12-11T02:31:41.145Z,25.50
2022-12-11T02:34:11.725Z,29.63
2022-12-11T02:36:43.133Z,28.95
2022-12-11T02:39:13.596Z,30.60
2022-12-11T02:41:45.450Z,27.80
2022-12-11T02:44:17.918Z,27.00
2022-12-11T02:46:46.796Z,28.00
2022-12-11T02:49:15.758Z,29.75
2022-12-11T02:51:45.479Z,27.13
2022-12-11T02:54:17.562Z,26.58
2022-12-11T02:56:49.292Z,26.55
2022-12-11T02:59:23.230Z,29.55
2022-12-11T03:01:52.356Z,24.67
2022-12-11T03:04:24.768Z,25.52
2022-12-11T03:06:56.032Z,23.70
2022-12-11T03:09:24.647Z,26.25
2022-12-11T03:11:54.172Z,29.13
2022-12-11T03:14:24.285Z,26.90
2022-12-11T03:16:58.526Z,23.65
2022-12-11T03:19:32.566Z,26.35
2022-12-11T03:22:07.717Z,24.40
2022-12-11T03:24:40.992Z,28.95
2022-12-11T03:27:13.844Z,28.42
2022-12-11T03:29:49.332Z,28.33
2022-12-11T03:32:23.133Z,30.63
2022-12-11T03:34:58.427Z,28.55
2022-12-11T03:37:29.018Z,36.50
2022-12-11T03:40:02.334Z,29.90
2022-12-11T03:42:31.289Z,28.65
2022-12-11T03:45:02.056Z,31.35
2022-12-11T03:47:31.853Z,26.95
2022-12-11T03:50:01.617Z,24.17
2022-12-11T03:52:32.437Z,28.23
2022-12-11T03:55:05.250Z,27.20
2022-12-11T03:57:38.104Z,28.08
2022-12-11T04:00:09.692Z,25.30
2022-12-11T04:02:41.399Z,24.85
2022-12-11T04:05:12.027Z,25.23
2022-12-11T04:07:40.974Z,25.95
2022-12-11T04:10:10.108Z,26.30
2022-12-11T04:12:38.794Z,23.73
2022-12-11T04:15:09.632Z,24.58
2022-12-11T04:17:56.186Z,25.15
2022-12-11T04:20:42.542Z,23.70
2022-12-11T04:23:32.739Z,24.92
2022-12-11T04:26:06.053Z,24.20
2022-12-11T04:28:35.244Z,25.58
2022-12-11T04:31:05.946Z,26.58
2022-12-11T04:33:34.940Z,26.73
2022-12-11T04:36:03.695Z,28.67
2022-12-11T04:38:32.434Z,21.85
2022-12-11T04:41:01.745Z,25.45
2022-12-11T04:43:31.089Z,22.77
2022-12-11T04:46:05.985Z,25.50
2022-12-11T04:48:35.143Z,22.88
2022-12-11T04:51:03.751Z,31.50
2022-12-11T04:53:32.735Z,26.85
2022-12-11T04:56:01.346Z,21.52
2022-12-11T04:58:30.308Z,21.40
2022-12-11T05:00:58.907Z,22.45
2022-12-11T05:03:28.946Z,26.50
2022-12-11T05:05:57.699Z,27.08
2022-12-11T05:08:26.334Z,24.48
2022-12-11T05:10:58.380Z,28.23
2022-12-11T05:13:28.111Z,27.00
2022-12-11T05:15:56.724Z,24.25
2022-12-11T05:18:26.012Z,19.88
2022-12-11T05:20:59.883Z,23.52
2022-12-11T05:23:29.533Z,18.42
2022-12-11T05:25:59.352Z,19.98
2022-12-11T05:28:29.764Z,21.42
2022-12-11T05:30:58.943Z,19.30
2022-12-11T05:33:28.134Z,22.83
2022-12-11T05:35:58.302Z,22.90
2022-12-11T05:38:26.951Z,20.23
2022-12-11T05:40:59.524Z,18.40
2022-12-11T05:43:29.306Z,22.02
2022-12-11T05:46:01.650Z,23.00
2022-12-11T05:48:30.339Z,30.48
2022-12-11T05:51:01.324Z,23.50
2022-12-11T05:53:30.550Z,27.48
2022-12-11T05:56:03.699Z,26.00
2022-12-11T05:58:32.719Z,26.90
2022-12-11T06:01:02.374Z,27.63
2022-12-11T06:03:30.999Z,32.05
2022-12-11T06:06:03.270Z,28.60
2022-12-11T06:08:32.068Z,30.15
2022-12-11T06:11:00.747Z,29.55
2022-12-11T06:13:29.530Z,29.80
2022-12-11T06:16:02.525Z,29.45
2022-12-11T06:18:31.511Z,29.73
2022-12-11T06:21:01.498Z,33.15
2022-12-11T06:23:30.374Z,32.33
2022-12-11T06:25:58.978Z,32.78
2022-12-11T06:28:27.579Z,33.15
2022-12-11T06:30:56.401Z,34.97
2022-12-11T06:33:25.414Z,31.55
2022-12-11T06:35:54.222Z,29.95
2022-12-11T06:38:24.615Z,32.10
2022-12-11T06:40:56.950Z,36.88
2022-12-11T06:43:25.611Z,33.25
2022-12-11T06:45:57.926Z,34.10
2022-12-11T06:50:57.963Z,32.58
2022-12-11T06:53:27.907Z,37.47
2022-12-11T06:55:56.723Z,38.70
2022-12-11T06:58:25.414Z,35.75
2022-12-11T07:00:54.100Z,40.15
2022-12-11T07:03:22.889Z,38.40
2022-12-11T07:05:51.499Z,40.00
2022-12-11T07:08:20.450Z,37.03
2022-12-11T07:10:50.453Z,35.67
2022-12-11T07:13:19.200Z,34.38
2022-12-11T07:15:47.816Z,37.22
2022-12-11T07:18:16.690Z,37.28
2022-12-11T07:20:45.924Z,39.42
2022-12-11T07:23:14.624Z,38.60
2022-12-11T07:25:43.216Z,33.67
2022-12-11T07:28:16.613Z,37.28
2022-12-11T07:30:45.512Z,37.15
2022-12-11T07:33:14.357Z,35.92
2022-12-11T07:35:43.031Z,39.92
2022-12-11T07:38:11.654Z,36.78
2022-12-11T07:40:40.408Z,54.03
2022-12-11T07:43:09.078Z,40.45
2022-12-11T07:45:39.624Z,36.67
2022-12-11T07:48:08.349Z,33.83
2022-12-11T07:50:39.930Z,36.33
2022-12-11T07:53:08.701Z,35.10
2022-12-11T07:55:37.387Z,35.22
2022-12-11T07:58:06.351Z,32.20
2022-12-11T08:00:34.943Z,31.35
2022-12-11T08:03:05.113Z,33.50
2022-12-11T08:05:33.783Z,33.35
2022-12-11T08:08:02.464Z,36.28
2022-12-11T08:10:31.182Z,32.38
2022-12-11T08:12:59.754Z,31.02
2022-12-11T08:15:28.486Z,34.75
2022-12-11T08:17:57.105Z,31.85
2022-12-11T08:20:27.091Z,32.58
2022-12-11T08:22:59.204Z,35.28
2022-12-11T08:25:28.062Z,30.08
2022-12-11T08:27:56.702Z,33.15
2022-12-11T08:30:25.381Z,29.90
2022-12-11T08:32:54.114Z,29.02
2022-12-11T08:35:22.909Z,27.00
2022-12-11T08:37:52.960Z,27.67
2022-12-11T08:40:22.135Z,30.30
2022-12-11T08:42:52.248Z,28.10
2022-12-11T08:45:21.046Z,26.70
2022-12-11T08:47:49.680Z,25.67
2022-12-11T08:50:18.513Z,30.48
2022-12-11T08:52:47.102Z,27.00
2022-12-11T08:55:17.200Z,27.95
2022-12-11T08:57:45.876Z,27.40
2022-12-11T09:00:16.330Z,28.60
2022-12-11T09:02:45.112Z,24.83
2022-12-11T09:05:14.057Z,26.38
2022-12-11T09:07:42.799Z,32.22
2022-12-11T09:10:12.061Z,29.85
2022-12-11T09:12:42.689Z,28.38
2022-12-11T09:15:12.558Z,30.73
2022-12-11T09:17:41.694Z,26.75
2022-12-11T09:20:11.050Z,28.83
2022-12-11T09:22:39.957Z,30.75
2022-12-11T09:25:09.586Z,31.33
2022-12-11T09:27:38.614Z,32.80
2022-12-11T09:30:10.129Z,32.50
2022-12-11T09:32:39.858Z,33.80
2022-12-11T09:35:10.929Z,33.78
2022-12-11T09:37:39.883Z,36.30
2022-12-11T09:40:10.969Z,35.72
2022-12-11T09:42:49.025Z,30.73
2022-12-11T09:45:19.389Z,29.17
2022-12-11T09:47:51.094Z,26.92
2022-12-11T09:50:22.530Z,24.95
2022-12-11T09:53:03.696Z,26.35
2022-12-11T09:55:40.486Z,24.42
2022-12-11T09:58:18.239Z,28.20
2022-12-11T10:00:49.670Z,27.88
2022-12-11T10:03:31.476Z,28.08
2022-12-11T10:06:05.302Z,31.50
2022-12-11T10:08:37.956Z,35.20
2022-12-11T10:11:22.196Z,32.05
2022-12-11T10:13:56.239Z,29.48
2022-12-11T10:16:35.858Z,29.60
2022-12-11T10:19:04.579Z,31.15
2022-12-11T10:21:40.290Z,31.75
2022-12-11T10:24:34.678Z,28.63
2022-12-11T10:27:16.276Z,31.98
2022-12-11T10:29:45.218Z,28.85
2022-12-11T10:32:24.447Z,27.80
2022-12-11T10:34:56.843Z,26.70
2022-12-11T10:37:25.520Z,37.72
2022-12-11T10:39:54.269Z,30.48
2022-12-11T10:42:24.099Z,32.45
2022-12-11T10:45:00.723Z,27.10
2022-12-11T10:47:31.220Z,25.33
2022-12-11T10:50:02.078Z,35.97
2022-12-11T10:52:33.915Z,31.48
2022-12-11T10:55:04.902Z,28.30
2022-12-11T10:57:36.327Z,28.88
2022-12-11T11:00:07.656Z,24.15
2022-12-11T11:02:40.245Z,26.08
2022-12-11T11:05:17.355Z,25.20
2022-12-11T11:07:46.229Z,23.63
2022-12-11T11:10:19.640Z,24.20
2022-12-11T11:12:50.862Z,27.00
2022-12-11T11:15:21.454Z,25.02
2022-12-11T11:17:56.295Z,26.67
2022-12-11T11:20:26.662Z,62.42
2022-12-11T11:22:57.463Z,31.48
2022-12-11T11:25:27.389Z,28.73
2022-12-11T11:27:57.934Z,27.67
2022-12-11T11:30:28.334Z,31.02
2022-12-11T11:33:00.745Z,25.08
2022-12-11T11:35:31.335Z,25.85
2022-12-11T11:38:04.214Z,27.80
2022-12-11T11:40:35.314Z,26.27
2022-12-11T11:43:09.035Z,29.20
2022-12-11T11:45:42.405Z,32.20
2022-12-11T11:48:21.985Z,25.70
2022-12-11T11:50:52.030Z,28.67
2022-12-11T11:53:25.068Z,25.48
2022-12-11T11:56:04.330Z,27.08
2022-12-11T11:58:40.817Z,25.75
2022-12-11T12:01:14.239Z,24.00
2022-12-11T12:03:44.460Z,28.05
2022-12-11T12:06:18.869Z,29.13
2022-12-11T12:09:04.434Z,26.25
2022-12-11T12:11:39.047Z,25.10
2022-12-11T12:14:43.702Z,25.83
2022-12-11T12:17:13.632Z,29.52
2022-12-11T12:19:54.499Z,26.17
2022-12-11T12:22:39.128Z,27.42
2022-12-11T12:25:17.993Z,27.55
2022-12-11T12:28:00.815Z,29.48
2022-12-11T12:30:36.569Z,37.05
2022-12-11T12:33:16.667Z,29.52
2022-12-11T12:35:52.120Z,27.30
2022-12-11T12:38:24.666Z,27.40
2022-12-11T12:40:59.383Z,26.25
2022-12-11T12:43:53.646Z,29.70
2022-12-11T12:46:29.250Z,26.60
2022-12-11T12:48:58.626Z,31.08
2022-12-11T12:51:29.233Z,29.02
2022-12-11T12:54:01.775Z,30.02
2022-12-11T12:56:32.850Z,30.90
2022-12-11T12:59:01.635Z,28.67
2022-12-11T13:01:31.006Z,30.50
2022-12-11T13:04:02.499Z,30.83
2022-12-11T13:06:35.678Z,29.48
2022-12-11T13:09:19.062Z,29.38
2022-12-11T13:11:50.259Z,27.98
2022-12-11T13:14:28.749Z,29.30
2022-12-11T13:17:22.111Z,31.35
2022-12-11T13:19:52.896Z,28.80
2022-12-11T13:22:25.714Z,29.92
2022-12-11T13:25:01.783Z,25.52
2022-12-11T13:27:40.390Z,29.92
2022-12-11T13:30:22.372Z,32.35
2022-12-11T13:33:00.579Z,32.58
2022-12-11T13:35:29.659Z,31.75
2022-12-11T13:38:07.838Z,33.67
2022-12-11T13:40:40.819Z,32.45
2022-12-11T13:43:18.810Z,34.03
2022-12-11T13:45:50.271Z,31.67
2022-12-11T13:48:25.703Z,31.90
2022-12-11T13:50:55.660Z,28.63
2022-12-11T13:53:25.818Z,32.40
2022-12-11T13:55:58.912Z,30.75
2022-12-11T13:58:28.725Z,33.92
2022-12-11T14:01:06.224Z,35.00
2022-12-11T14:03:35.259Z,36.22
2022-12-11T14:06:05.140Z,33.72
2022-12-11T14:08:38.277Z,35.35
2022-12-11T14:11:07.199Z,36.20
2022-12-11T14:13:37.232Z,37.70
2022-12-11T14:16:06.519Z,41.42
2022-12-11T14:18:36.819Z,33.78
2022-12-11T14:21:06.982Z,36.13
2022-12-11T14:23:38.195Z,38.83
2022-12-11T14:26:18.418Z,42.60
2022-12-11T14:28:47.179Z,35.78
2022-12-11T14:31:17.939Z,36.50
2022-12-11T14:33:50.736Z,36.78
2022-12-11T14:36:20.717Z,41.25
2022-12-11T14:38:53.861Z,41.90
2022-12-11T14:41:27.314Z,37.05
2022-12-11T14:43:58.624Z,38.33
2022-12-11T14:46:34.051Z,37.55
2022-12-11T14:49:06.519Z,37.88
2022-12-11T14:51:39.771Z,39.42
2022-12-11T14:54:16.088Z,35.55
2022-12-11T14:56:48.167Z,36.92
2022-12-11T14:59:25.470Z,35.90
2022-12-11T15:02:01.680Z,37.83
2022-12-11T15:04:33.245Z,35.00
2022-12-11T15:07:02.001Z,34.85
2022-12-11T15:09:40.618Z,36.70
2022-12-11T15:12:12.813Z,37.20
2022-12-11T15:14:48.111Z,37.03
2022-12-11T15:17:17.059Z,37.47
2022-12-11T15:19:51.045Z,35.90
2022-12-11T15:22:20.170Z,38.40
2022-12-11T15:24:52.249Z,36.60
2022-12-11T15:27:26.683Z,37.47
2022-12-11T15:29:55.473Z,44.67
2022-12-11T15:32:24.504Z,43.90
2022-12-11T15:34:54.887Z,37.97
2022-12-11T15:37:25.734Z,50.28
2022-12-11T15:39:56.919Z,43.22
2022-12-11T15:42:28.972Z,42.63
2022-12-11T15:44:57.944Z,44.97
2022-12-11T15:47:28.608Z,45.17
2022-12-11T15:49:59.454Z,37.75
2022-12-11T15:52:28.349Z,39.92
2022-12-11T15:54:58.367Z,39.92
2022-12-11T15:57:27.057Z,38.55
2022-12-11T15:59:56.500Z,44.05
2022-12-11T16:02:26.734Z,38.35
2022-12-11T16:04:57.732Z,40.28
2022-12-11T16:07:27.376Z,40.35
2022-12-11T16:09:57.337Z,45.20
2022-12-11T16:12:25.973Z,40.88
2022-12-11T16:14:54.671Z,38.97
2022-12-11T16:17:23.226Z,41.20
2022-12-11T16:19:54.223Z,43.08
2022-12-11T16:22:22.855Z,43.58
2022-12-11T16:24:54.711Z,38.50
2022-12-11T16:27:25.538Z,39.72
2022-12-11T16:29:54.140Z,38.33
2022-12-11T16:32:22.803Z,36.65
2022-12-11T16:34:51.350Z,49.47
2022-12-11T16:37:20.217Z,47.28
2022-12-11T16:39:49.078Z,46.67
2022-12-11T16:42:18.571Z,44.08
2022-12-11T16:44:52.300Z,38.60
2022-12-11T16:47:20.871Z,39.53
2022-12-11T16:49:50.314Z,44.13
2022-12-11T16:52:22.139Z,41.97
2022-12-11T16:54:51.075Z,39.28
2022-12-11T16:57:19.620Z,36.47
2022-12-11T16:59:50.290Z,37.35
2022-12-11T17:02:19.541Z,43.65
2022-12-11T17:04:53.712Z,34.97
2022-12-11T17:07:22.932Z,43.30
2022-12-11T17:09:51.640Z,39.60
2022-12-11T17:12:25.640Z,38.85
2022-12-11T17:14:55.881Z,39.38
2022-12-11T17:17:24.815Z,40.80
2022-12-11T17:19:53.457Z,45.28
2022-12-11T17:22:22.291Z,39.88
2022-12-11T17:24:50.972Z,40.13
2022-12-11T17:27:19.610Z,40.72
2022-12-11T17:29:49.544Z,43.17
2022-12-11T17:32:19.858Z,51.63
2022-12-11T17:34:50.444Z,48.40
2022-12-11T17:37:19.369Z,45.95
2022-12-11T17:39:48.201Z,44.75
2022-12-11T17:42:17.043Z,44.65
2022-12-11T17:44:46.490Z,43.53
2022-12-11T17:47:15.359Z,43.83
2022-12-11T17:49:45.451Z,46.42
2022-12-11T17:52:14.261Z,47.35
2022-12-11T17:54:42.976Z,44.35
2022-12-11T17:57:11.594Z,42.05
2022-12-11T17:59:40.245Z,45.67
2022-12-11T18:02:10.575Z,47.03
2022-12-11T18:04:39.742Z,44.58
2022-12-11T18:07:09.693Z,43.63
2022-12-11T18:09:41.324Z,44.92
2022-12-11T18:12:10.701Z,42.85
2022-12-11T18:14:39.501Z,38.45
2022-12-11T18:17:08.568Z,42.70
2022-12-11T18:19:40.242Z,39.95
2022-12-11T18:22:14.640Z,42.95
2022-12-11T18:24:44.346Z,43.80
2022-12-11T18:27:15.142Z,42.53
2022-12-11T18:29:43.771Z,42.47
2022-12-11T18:32:12.741Z,44.28
2022-12-11T18:34:41.388Z,44.63
2022-12-11T18:37:10.465Z,46.88
2022-12-11T18:39:40.607Z,47.42
2022-12-11T18:42:32.288Z,45.30
2022-12-11T18:44:58.253Z,40.88
2022-12-11T18:47:26.856Z,45.00
2022-12-11T18:49:55.773Z,42.50
2022-12-11T18:52:24.539Z,43.75
2022-12-11T18:54:54.478Z,40.28
2022-12-11T18:57:23.191Z,45.97
2022-12-11T18:59:53.154Z,44.10
2022-12-11T19:02:22.193Z,51.58
2022-12-11T19:04:50.848Z,42.83
2022-12-11T19:07:19.573Z,50.08
2022-12-11T19:09:48.597Z,47.10
2022-12-11T19:12:19.621Z,46.85
2022-12-11T19:14:48.742Z,47.85
2022-12-11T19:17:17.531Z,49.15
2022-12-11T19:19:47.377Z,52.60
2022-12-11T19:22:16.105Z,51.50
2022-12-11T19:24:44.736Z,51.72
2022-12-11T19:27:13.962Z,50.15
2022-12-11T19:29:44.208Z,48.42
2022-12-11T19:32:12.903Z,45.97
2022-12-11T19:34:41.680Z,45.28
2022-12-11T19:37:10.469Z,42.72
2022-12-11T19:39:40.528Z,50.88
2022-12-11T19:42:09.207Z,54.40
2022-12-11T19:44:38.105Z,52.90
2022-12-11T19:47:08.123Z,41.88
2022-12-11T19:49:37.005Z,43.92
2022-12-11T19:52:05.701Z,51.75
2022-12-11T19:54:34.299Z,42.25
2022-12-11T19:57:03.056Z,46.88
2022-12-11T19:59:31.760Z,47.67
2022-12-11T20:02:00.543Z,43.15
2022-12-11T20:04:30.700Z,45.25
2022-12-11T20:06:59.279Z,40.58
2022-12-11T20:09:28.062Z,43.90
2022-12-11T20:11:56.852Z,48.72
2022-12-11T20:14:27.341Z,45.50
2022-12-11T20:17:14.843Z,46.88
2022-12-11T20:19:45.277Z,40.58
2022-12-11T20:22:14.216Z,39.47
2022-12-11T20:24:43.325Z,45.35
2022-12-11T20:27:12.489Z,49.70
2022-12-11T20:29:41.343Z,44.50
2022-12-11T20:32:12.234Z,41.22
2022-12-11T20:34:41.261Z,42.45
2022-12-11T20:37:11.220Z,45.22
2022-12-11T20:39:39.964Z,43.75
2022-12-11T20:42:10.924Z,45.47
2022-12-11T20:44:42.821Z,46.72
2022-12-11T20:47:16.115Z,48.60
2022-12-11T20:49:44.988Z,43.58
2022-12-11T20:52:14.970Z,43.75
2022-12-11T20:54:43.758Z,45.08
2022-12-11T20:57:13.508Z,42.55
2022-12-11T20:59:42.238Z,46.03
2022-12-11T21:02:12.716Z,39.67
2022-12-11T21:04:42.355Z,48.72
2022-12-11T21:07:11.787Z,46.20
2022-12-11T21:09:42.096Z,44.75
2022-12-11T21:12:10.771Z,49.33
2022-12-11T21:14:39.657Z,46.70
2022-12-11T21:17:08.336Z,44.55
2022-12-11T21:19:37.007Z,48.08
2022-12-11T21:22:05.665Z,43.00
2022-12-11T21:24:34.281Z,45.08
2022-12-11T21:27:04.399Z,42.38
2022-12-11T21:29:32.975Z,39.65
2022-12-11T21:32:01.977Z,49.70
2022-12-11T21:34:30.718Z,48.35
2022-12-11T21:36:59.577Z,42.67
2022-12-11T21:39:29.544Z,46.05
2022-12-11T21:42:00.548Z,43.92
2022-12-11T21:47:19.475Z,43.95
2022-12-11T21:49:48.099Z,46.03
2022-12-11T21:52:16.940Z,42.92
2022-12-11T21:54:45.606Z,41.63
2022-12-11T21:57:14.188Z,46.47
2022-12-11T21:59:44.290Z,41.35
2022-12-11T22:02:13.118Z,45.30
2022-12-11T22:04:42.142Z,42.13
2022-12-11T22:07:10.740Z,45.20
2022-12-11T22:09:39.698Z,43.30
2022-12-11T22:12:08.806Z,42.13
2022-12-11T22:14:37.432Z,40.90
2022-12-11T22:17:07.413Z,42.15
2022-12-11T22:19:36.051Z,41.22
2022-12-11T22:22:04.652Z,42.83
2022-12-11T22:24:33.485Z,39.92
2022-12-11T22:27:02.178Z,39.00
2022-12-11T22:29:30.794Z,36.28
2022-12-11T22:31:59.492Z,39.67
2022-12-11T22:34:29.690Z,45.13
2022-12-11T22:36:58.629Z,48.92
2022-12-11T22:39:27.920Z,43.50
2022-12-11T22:41:56.998Z,42.10
2022-12-11T22:44:25.842Z,40.58
2022-12-11T22:46:54.498Z,41.08
2022-12-11T22:49:23.277Z,41.38
2022-12-11T22:51:53.380Z,39.13
2022-12-11T22:54:22.641Z,42.53
2022-12-11T22:56:51.601Z,39.33
2022-12-11T22:59:20.379Z,40.15
2022-12-11T23:01:49.345Z,40.90
2022-12-11T23:04:18.405Z,41.90
2022-12-11T23:06:47.271Z,41.47
2022-12-11T23:09:17.514Z,47.42
2022-12-11T23:11:47.144Z,41.38
2022-12-11T23:14:17.933Z,43.00
2022-12-11T23:16:47.696Z,40.13
2022-12-11T23:19:19.629Z,40.03
2022-12-11T23:21:52.697Z,40.90
2022-12-11T23:24:22.777Z,42.05
2022-12-11T23:26:51.532Z,44.78
2022-12-11T23:29:20.409Z,48.47
2022-12-11T23:31:48.981Z,43.30
2022-12-11T23:34:17.766Z,45.05
2022-12-11T23:36:46.385Z,40.55
2022-12-11T23:39:15.099Z,43.42
2022-12-11T23:41:45.044Z,45.97
2022-12-11T23:44:13.656Z,42.45
2022-12-11T23:46:44.940Z,44.92
2022-12-11T23:49:13.622Z,43.85
2022-12-11T23:51:43.906Z,42.22
2022-12-11T23:54:12.516Z,44.20
2022-12-11T23:56:41.148Z,42.00
2022-12-11T23:59:13.509Z,41.47
